Current Conditions
Partly Cloudy
Conditions



Pressure
1014.92 (hPa) - 29.97 (inHG)
Visibility

5.0 (km) - 3.1 (miles)
   Temperature
15  °C
59°F
14  °C
Dewpoint
94  %
 Humidity
   Wind Speed
8  km/h
4  kts
5  mph
2.2  m/s
   Wind Direction
 110°
East South
East
   Airport Data
EHAM
Location Amsterdam Schiphol 25 km (15.54 mi)
Metar :EHAM 082125Z 11004KT 5000 -DZ FEW004 BKN007 15/14 Q1015 TEMPO 4000
Wed 8th July 22:25 pm
   Raw Metar Info
Raw METAR is the most common format in the world for the transmission of observational weather data. It is highly standardized through the International Civil Aviation Organization (ICAO), which allows it to be understood throughout most of the world.
   API Info
Data Provided by
https://www.checkwx.com/weather/EHAM
   © Info
CSS/SVG/PHP scripts were developed by weather34.com for use in the weather34 template © 2015-2020

Guide Info provided by Metar-Wikipedia